Time;durP1;ratioP1;P1;durP2;ratioP2;P2;SDS_P1;SDS_P2;PMS_P1;PMS_P2;Temp;Humidity;BMP_temperature;BMP_pressure;BME280_temperature;BME280_humidity;BME280_pressure;Samples;Min_cycle;Max_cycle;Signal;HPM_P1;HPM_P2
2023/07/01 00:00:59;;;;;;;;;;;;;;;22.45;44.04;99852.97;4839920;29;10442;-71
2023/07/01 00:03:30;;;;;;;;;;;;;;;22.44;43.87;99846.00;4857350;29;7048;-71
2023/07/01 00:05:59;;;;;;;;;;;;;;;22.43;44.27;99841.69;4862597;29;7018;-70
2023/07/01 00:08:25;;;;;;;;;;;;;;;22.42;44.42;99837.34;4846577;29;7134;-71
2023/07/01 00:10:51;;;;;;;;;;;;;;;22.42;44.56;99838.19;4846101;29;7910;-71
2023/07/01 00:13:16;;;;;;;;;;;;;;;22.43;44.35;99839.06;4848153;29;6991;-70
2023/07/01 00:15:42;;;;;;;;;;;;;;;22.42;43.87;99830.34;4855205;29;6777;-70
2023/07/01 00:18:08;;;;;;;;;;;;;;;22.43;44.03;99831.22;4840588;29;6920;-71
2023/07/01 00:20:33;;;;;;;;;;;;;;;22.44;44.18;99835.56;4843199;29;6837;-70
2023/07/01 00:22:59;;;;;;;;;;;;;;;22.44;43.83;99830.34;4839512;29;6792;-72
2023/07/01 00:25:24;;;;;;;;;;;;;;;22.43;43.94;99820.78;4839551;29;6949;-70
2023/07/01 00:27:50;;;;;;;;;;;;;;;22.43;43.81;99823.41;4821996;29;8550;-71
2023/07/01 00:30:16;;;;;;;;;;;;;;;22.43;43.91;99812.97;4841685;29;6844;-71
2023/07/01 00:32:41;;;;;;;;;;;;;;;22.44;44.12;99810.31;4861157;29;6978;-70
2023/07/01 00:35:07;;;;;;;;;;;;;;;22.45;43.68;99811.19;4843085;29;6765;-72
2023/07/01 00:37:33;;;;;;;;;;;;;;;22.46;44.21;99810.31;4840575;29;6820;-70
2023/07/01 00:39:58;;;;;;;;;;;;;;;22.45;43.72;99805.97;4851863;29;6773;-71
2023/07/01 00:42:24;;;;;;;;;;;;;;;22.45;43.82;99805.97;4838042;29;7127;-71
2023/07/01 00:44:50;;;;;;;;;;;;;;;22.45;43.66;99806.84;4837556;29;6830;-70
2023/07/01 00:47:16;;;;;;;;;;;;;;;22.45;43.95;99798.13;4846282;29;6776;-70
2023/07/01 00:49:42;;;;;;;;;;;;;;;22.45;44.03;99800.75;4846030;29;6864;-70
2023/07/01 00:52:08;;;;;;;;;;;;;;;22.45;44.01;99801.63;4846200;29;7518;-72
2023/07/01 00:54:35;;;;;;;;;;;;;;;22.46;44.28;99789.41;4841380;29;6954;-69
2023/07/01 00:57:04;;;;;;;;;;;;;;;22.48;44.46;99790.25;4862126;29;6793;-71
2023/07/01 00:59:30;;;;;;;;;;;;;;;;;;4837875;29;7143;-71
2023/07/01 01:02:03;;;;;;;;;;;;;;;22.50;43.86;99787.69;4847432;29;8368;-70
2023/07/01 01:04:44;;;;;;;;;;;;;;;22.49;43.59;99781.56;4845894;29;6987;-70
2023/07/01 01:07:24;;;;;;;;;;;;;;;22.49;43.50;99776.34;4865661;29;6851;-70
2023/07/01 01:10:02;;;;;;;;;;;;;;;22.50;43.90;99779.84;4843626;29;6808;-71
2023/07/01 01:12:31;;;;;;;;;;;;;;;22.50;43.80;99778.06;4842092;29;6804;-70
2023/07/01 01:14:59;;;;;;;;;;;;;;;22.51;43.65;99769.41;4837936;29;7994;-70
2023/07/01 01:17:27;;;;;;;;;;;;;;;22.52;43.63;99768.50;4844406;29;7890;-70
2023/07/01 01:19:59;;;;;;;;;;;;;;;22.53;43.26;99762.41;4842038;29;6982;-70
2023/07/01 01:22:38;;;;;;;;;;;;;;;22.54;43.12;99758.91;4827490;29;6852;-70
2023/07/01 01:25:10;;;;;;;;;;;;;;;22.55;42.83;99752.78;4834289;29;7001;-70
2023/07/01 01:27:41;;;;;;;;;;;;;;;22.57;43.09;99755.41;4856894;29;7445;-71
2023/07/01 01:30:09;;;;;;;;;;;;;;;22.58;43.24;99747.53;4842760;29;6793;-71
2023/07/01 01:32:35;;;;;;;;;;;;;;;22.59;43.22;99746.63;4858103;29;7007;-70
2023/07/01 01:35:02;;;;;;;;;;;;;;;22.60;43.06;99745.78;4844139;29;6976;-71
2023/07/01 01:37:38;;;;;;;;;;;;;;;22.60;42.77;99737.94;4846420;29;7787;-69
2023/07/01 01:40:17;;;;;;;;;;;;;;;22.61;42.64;99739.69;4841605;29;6837;-71
2023/07/01 01:42:45;;;;;;;;;;;;;;;22.61;42.70;99744.91;4842376;29;7076;-71
2023/07/01 01:45:18;;;;;;;;;;;;;;;22.62;42.82;99740.53;4821802;29;7108;-71
2023/07/01 01:47:46;;;;;;;;;;;;;;;22.63;42.54;99737.03;4842498;29;6800;-72
2023/07/01 01:50:14;;;;;;;;;;;;;;;22.64;42.29;99730.06;4844936;29;6892;-70
2023/07/01 01:52:41;;;;;;;;;;;;;;;22.64;42.55;99725.69;4845754;29;6788;-71
2023/07/01 01:55:11;;;;;;;;;;;;;;;22.64;42.21;99725.69;4841588;29;7509;-70
2023/07/01 01:57:39;;;;;;;;;;;;;;;22.65;42.57;99717.00;4848232;29;6781;-73
2023/07/01 02:00:08;;;;;;;;;;;;;;;22.63;42.49;99715.28;4860445;29;7393;-70
2023/07/01 02:02:36;;;;;;;;;;;;;;;22.62;41.96;99717.03;4846359;29;6813;-71
2023/07/01 02:05:01;;;;;;;;;;;;;;;22.61;42.23;99708.34;4846052;29;6800;-70
2023/07/01 02:07:27;;;;;;;;;;;;;;;22.63;41.93;99710.06;4857196;29;6945;-72
2023/07/01 02:09:53;;;;;;;;;;;;;;;22.61;42.13;99700.50;4844792;29;6836;-71
2023/07/01 02:12:18;;;;;;;;;;;;;;;22.61;41.94;99702.25;4842970;29;7131;-71
2023/07/01 02:14:44;;;;;;;;;;;;;;;22.59;41.96;99698.78;4838959;29;6860;-70
2023/07/01 02:17:10;;;;;;;;;;;;;;;22.57;41.68;99701.41;4841489;29;7093;-70
2023/07/01 02:19:35;;;;;;;;;;;;;;;22.56;42.01;99693.63;4835580;29;7284;-72
2023/07/01 02:22:01;;;;;;;;;;;;;;;22.58;41.89;99692.69;4855594;29;6882;-70
2023/07/01 02:24:26;;;;;;;;;;;;;;;22.58;41.91;99695.31;4856540;29;6959;-70
2023/07/01 02:26:52;;;;;;;;;;;;;;;22.58;41.64;99692.69;4844072;29;6761;-70
2023/07/01 02:29:18;;;;;;;;;;;;;;;22.58;41.82;99690.09;4851607;29;6876;-71
2023/07/01 02:31:44;;;;;;;;;;;;;;;22.59;41.38;99681.34;4859612;29;7088;-73
2023/07/01 02:34:09;;;;;;;;;;;;;;;22.59;41.28;99678.75;4845763;29;6813;-74
2023/07/01 02:36:35;;;;;;;;;;;;;;;22.55;41.32;99674.47;4844934;29;6825;-73
2023/07/01 02:39:00;;;;;;;;;;;;;;;22.53;41.46;99670.13;4849009;29;6955;-73
2023/07/01 02:41:26;;;;;;;;;;;;;;;22.54;41.79;99679.69;4860870;29;7043;-74
2023/07/01 02:43:52;;;;;;;;;;;;;;;22.55;41.86;99671.84;4827182;29;6951;-73
2023/07/01 02:46:18;;;;;;;;;;;;;;;22.57;41.06;99672.69;4841378;29;6777;-74
2023/07/01 02:48:43;;;;;;;;;;;;;;;22.60;41.64;99677.91;4846760;29;6945;-73
2023/07/01 02:51:09;;;;;;;;;;;;;;;22.63;41.44;99673.50;4847555;29;6785;-73
2023/07/01 02:53:34;;;;;;;;;;;;;;;22.66;41.19;99673.47;4846920;29;6784;-73
2023/07/01 02:56:02;;;;;;;;;;;;;;;22.68;41.43;99671.69;4844651;29;6841;-71
2023/07/01 02:58:27;;;;;;;;;;;;;;;22.71;41.16;99671.66;4844066;29;6949;-70
2023/07/01 03:00:53;;;;;;;;;;;;;;;22.74;41.19;99674.22;4837494;29;6937;-71
2023/07/01 03:03:19;;;;;;;;;;;;;;;22.74;41.07;99667.25;4842272;29;7225;-71
2023/07/01 03:05:44;;;;;;;;;;;;;;;22.75;41.26;99662.88;4844820;29;6828;-72
2023/07/01 03:08:10;;;;;;;;;;;;;;;22.71;41.14;99656.84;4842943;29;7219;-70
2023/07/01 03:10:35;;;;;;;;;;;;;;;22.67;41.02;99665.59;4842329;29;6957;-70
2023/07/01 03:13:01;;;;;;;;;;;;;;;22.64;41.55;99655.19;4843481;29;6835;-71
2023/07/01 03:15:27;;;;;;;;;;;;;;;22.63;41.47;99650.00;4842054;29;7436;-71
2023/07/01 03:17:53;;;;;;;;;;;;;;;22.63;41.15;99663.06;4845013;29;7016;-71
2023/07/01 03:20:25;;;;;;;;;;;;;;;22.60;41.70;99650.91;4843383;29;6760;-70
2023/07/01 03:22:53;;;;;;;;;;;;;;;22.42;41.95;99655.44;4841325;29;7274;-69
2023/07/01 03:25:19;;;;;;;;;;;;;;;22.16;42.77;99650.56;4857001;29;6950;-70
2023/07/01 03:27:46;;;;;;;;;;;;;;;21.91;43.32;99648.22;4824391;29;6943;-71
2023/07/01 03:30:13;;;;;;;;;;;;;;;21.64;44.06;99650.22;4840663;29;6769;-70
2023/07/01 03:32:40;;;;;;;;;;;;;;;21.42;45.05;99639.97;4839274;29;7115;-71
2023/07/01 03:35:06;;;;;;;;;;;;;;;21.24;46.08;99646.22;4840418;29;6864;-72
2023/07/01 03:37:32;;;;;;;;;;;;;;;21.09;46.94;99640.22;4840411;29;6832;-70
2023/07/01 03:39:58;;;;;;;;;;;;;;;20.97;46.93;99642.06;4838685;29;6950;-71
2023/07/01 03:42:23;;;;;;;;;;;;;;;20.87;47.20;99636.06;4859949;29;7226;-70
2023/07/01 03:44:49;;;;;;;;;;;;;;;20.77;47.76;99638.69;4858268;29;6834;-73
2023/07/01 03:47:15;;;;;;;;;;;;;;;20.78;47.84;99629.16;4843097;29;6900;-72
2023/07/01 03:49:40;;;;;;;;;;;;;;;20.82;47.72;99625.66;4845049;29;6780;-74
2023/07/01 03:52:08;;;;;;;;;;;;;;;20.89;47.45;99629.97;4842946;29;6911;-70
2023/07/01 03:54:33;;;;;;;;;;;;;;;20.95;47.53;99632.50;4847484;29;7243;-70
2023/07/01 03:56:59;;;;;;;;;;;;;;;21.02;47.81;99622.94;4855215;29;7354;-70
2023/07/01 03:59:25;;;;;;;;;;;;;;;21.08;47.42;99624.63;4864710;29;6773;-71
2023/07/01 04:01:50;;;;;;;;;;;;;;;21.16;47.71;99615.00;4841655;29;6796;-72
2023/07/01 04:04:16;;;;;;;;;;;;;;;21.23;47.64;99619.28;4866692;29;6933;-70
2023/07/01 04:06:42;;;;;;;;;;;;;;;21.30;47.44;99612.28;4859240;29;6825;-70
2023/07/01 04:09:12;;;;;;;;;;;;;;;21.40;47.34;99609.59;4846140;29;6772;-70
2023/07/01 04:11:39;;;;;;;;;;;;;;;21.48;47.09;99612.97;4845062;29;6855;-69
2023/07/01 04:14:05;;;;;;;;;;;;;;;21.57;46.75;99609.44;4860979;29;6789;-70
2023/07/01 04:16:30;;;;;;;;;;;;;;;21.65;46.65;99605.84;4844568;29;6957;-70
2023/07/01 04:18:56;;;;;;;;;;;;;;;21.74;46.57;99599.72;4857518;29;6765;-72
2023/07/01 04:21:23;;;;;;;;;;;;;;;21.86;46.33;99587.41;4864278;29;6981;-70
2023/07/01 04:23:48;;;;;;;;;;;;;;;21.94;45.95;99595.16;4846081;29;9797;-70
2023/07/01 04:26:14;;;;;;;;;;;;;;;22.01;45.96;99591.59;4845756;29;6753;-72
2023/07/01 04:28:40;;;;;;;;;;;;;;;22.06;45.86;99584.56;4842150;29;7307;-71
2023/07/01 04:31:06;;;;;;;;;;;;;;;22.13;45.32;99587.97;4856463;29;6776;-72
2023/07/01 04:33:32;;;;;;;;;;;;;;;22.16;45.21;99575.75;4863697;29;6789;-71
2023/07/01 04:35:58;;;;;;;;;;;;;;;22.23;45.38;99580.88;4847059;29;6772;-72
2023/07/01 04:38:23;;;;;;;;;;;;;;;22.26;45.31;99576.47;4846052;29;6773;-70
2023/07/01 04:40:49;;;;;;;;;;;;;;;22.29;45.12;99586.88;4841309;29;6760;-71
2023/07/01 04:43:16;;;;;;;;;;;;;;;22.32;44.75;99585.97;4857316;29;6800;-71
2023/07/01 04:45:43;;;;;;;;;;;;;;;22.36;44.66;99592.03;4827386;29;7260;-70
2023/07/01 04:48:10;;;;;;;;;;;;;;;22.39;44.91;99589.34;4856479;29;7189;-71
2023/07/01 04:50:36;;;;;;;;;;;;;;;22.40;44.83;99589.34;4842476;29;6797;-72
2023/07/01 04:53:01;;;;;;;;;;;;;;;22.43;44.46;99583.22;4842746;29;6797;-72
2023/07/01 04:55:27;;;;;;;;;;;;;;;22.44;44.80;99574.50;4824146;29;7211;-71
2023/07/01 04:57:53;;;;;;;;;;;;;;;22.46;44.39;99567.50;4841183;29;6832;-72
2023/07/01 05:00:21;;;;;;;;;;;;;;;22.51;44.76;99575.31;4856650;29;6912;-70
2023/07/01 05:02:47;;;;;;;;;;;;;;;22.57;44.51;99576.06;4854411;29;7107;-71
2023/07/01 05:05:12;;;;;;;;;;;;;;;22.60;44.65;99570.84;4840389;29;6968;-71
2023/07/01 05:07:38;;;;;;;;;;;;;;;22.64;44.62;99576.00;4841257;29;7249;-71
2023/07/01 05:10:04;;;;;;;;;;;;;;;22.67;44.35;99575.94;4842895;29;6780;-72
2023/07/01 05:12:30;;;;;;;;;;;;;;;22.65;44.41;99568.16;4844486;29;6849;-72
2023/07/01 05:14:55;;;;;;;;;;;;;;;22.62;44.40;99568.19;4858950;29;6797;-72
2023/07/01 05:17:21;;;;;;;;;;;;;;;22.57;44.15;99570.84;4840598;29;6940;-70
2023/07/01 05:19:47;;;;;;;;;;;;;;;22.52;44.22;99572.69;4846142;29;6769;-70
2023/07/01 05:22:12;;;;;;;;;;;;;;;22.45;44.67;99586.69;4859927;29;7504;-71
2023/07/01 05:24:38;;;;;;;;;;;;;;;22.33;45.06;99578.13;4859819;29;6772;-71
2023/07/01 05:27:04;;;;;;;;;;;;;;;22.22;45.33;99581.75;4843788;29;6824;-71
2023/07/01 05:29:29;;;;;;;;;;;;;;;22.00;45.76;99590.72;4858068;29;7202;-70
2023/07/01 05:31:56;;;;;;;;;;;;;;;21.84;46.09;99583.97;4840766;29;6951;-69
2023/07/01 05:34:23;;;;;;;;;;;;;;;21.75;46.43;99585.81;4835619;29;6785;-71
2023/07/01 05:36:50;;;;;;;;;;;;;;;21.71;46.51;99584.09;4842523;29;6809;-71
2023/07/01 05:39:17;;;;;;;;;;;;;;;21.70;46.95;99582.38;4844934;29;6793;-70
2023/07/01 05:41:44;;;;;;;;;;;;;;;21.70;46.91;99584.97;4835682;29;6804;-70
2023/07/01 05:44:13;;;;;;;;;;;;;;;21.69;46.99;99580.66;4843297;29;7044;-70
2023/07/01 05:46:42;;;;;;;;;;;;;;;21.69;47.44;99575.44;4860296;29;7926;-72
2023/07/01 05:49:08;;;;;;;;;;;;;;;21.70;47.36;99565.88;4845622;29;6805;-72
2023/07/01 05:51:34;;;;;;;;;;;;;;;21.71;47.54;99573.66;4841976;29;6813;-70
2023/07/01 05:54:00;;;;;;;;;;;;;;;21.72;47.81;99569.31;4858987;29;7632;-72
2023/07/01 05:56:26;;;;;;;;;;;;;;;21.75;47.63;99570.16;4856758;29;6790;-72
2023/07/01 05:58:51;;;;;;;;;;;;;;;21.76;47.60;99563.19;4844699;29;6784;-70
2023/07/01 06:01:17;;;;;;;;;;;;;;;21.71;47.67;99565.84;4837416;29;6844;-72
2023/07/01 06:03:42;;;;;;;;;;;;;;;21.64;47.96;99562.41;4858847;29;6810;-71
2023/07/01 06:06:08;;;;;;;;;;;;;;;21.50;48.57;99551.28;4844585;29;6981;-71
2023/07/01 06:08:34;;;;;;;;;;;;;;;21.33;49.07;99552.31;4859078;29;6988;-71
2023/07/01 06:10:59;;;;;;;;;;;;;;;21.20;49.27;99555.94;4842150;29;6793;-71
2023/07/01 06:13:25;;;;;;;;;;;;;;;21.11;49.94;99550.81;4850394;29;6797;-71
2023/07/01 06:15:51;;;;;;;;;;;;;;;21.07;50.20;99557.78;4842464;29;6768;-71
2023/07/01 06:18:16;;;;;;;;;;;;;;;21.05;50.28;99551.69;4843525;29;6769;-70
2023/07/01 06:20:43;;;;;;;;;;;;;;;21.04;50.61;99549.97;4844779;29;6972;-71
2023/07/01 06:23:09;;;;;;;;;;;;;;;21.02;50.95;99546.50;4842653;29;6781;-73
2023/07/01 06:25:34;;;;;;;;;;;;;;;20.97;51.16;99550.91;4858539;29;6788;-71
2023/07/01 06:28:00;;;;;;;;;;;;;;;20.92;51.64;99541.38;4840424;29;6801;-71
2023/07/01 06:30:26;;;;;;;;;;;;;;;20.92;52.26;99546.59;4858402;29;7212;-72
2023/07/01 06:32:52;;;;;;;;;;;;;;;20.97;52.38;99543.09;4839567;29;6901;-71
2023/07/01 06:35:18;;;;;;;;;;;;;;;20.98;52.51;99537.84;4836801;29;7218;-72
2023/07/01 06:37:43;;;;;;;;;;;;;;;20.99;52.54;99546.56;4856988;29;6800;-70
2023/07/01 06:40:12;;;;;;;;;;;;;;;20.99;52.50;99552.59;4857875;29;6847;-71
2023/07/01 06:42:38;;;;;;;;;;;;;;;20.99;53.22;99536.97;4840840;29;6965;-70
2023/07/01 06:45:04;;;;;;;;;;;;;;;21.00;53.29;99537.84;4862304;29;7902;-70
2023/07/01 06:47:30;;;;;;;;;;;;;;;21.06;53.19;99538.66;4843564;29;6776;-70
2023/07/01 06:49:55;;;;;;;;;;;;;;;21.18;53.17;99537.69;4839071;29;6773;-71
2023/07/01 06:52:21;;;;;;;;;;;;;;;21.32;53.27;99534.06;4860087;29;6964;-73
2023/07/01 06:54:46;;;;;;;;;;;;;;;21.46;52.90;99542.63;4841200;29;6789;-72
2023/07/01 06:57:12;;;;;;;;;;;;;;;21.59;52.71;99535.53;4846530;29;6777;-72
2023/07/01 06:59:38;;;;;;;;;;;;;;;21.72;52.24;99528.44;4844404;29;6829;-71
2023/07/01 07:02:04;;;;;;;;;;;;;;;21.82;52.36;99531.81;4852031;29;6772;-71
2023/07/01 07:04:29;;;;;;;;;;;;;;;21.93;52.07;99536.91;4825841;29;7168;-71
2023/07/01 07:06:55;;;;;;;;;;;;;;;22.02;51.94;99536.81;4835975;29;6769;-72
2023/07/01 07:09:22;;;;;;;;;;;;;;;22.08;52.01;99532.38;4856656;29;6788;-71
2023/07/01 07:11:48;;;;;;;;;;;;;;;22.15;52.42;99527.03;4855442;29;6793;-70
2023/07/01 07:14:13;;;;;;;;;;;;;;;22.17;52.32;99527.03;4840545;29;6801;-71
2023/07/01 07:16:51;;;;;;;;;;;;;;;22.12;52.02;99539.28;4845610;29;7008;-71
2023/07/01 07:19:16;;;;;;;;;;;;;;;22.03;52.32;99538.53;4837080;29;6789;-70
2023/07/01 07:21:42;;;;;;;;;;;;;;;22.07;53.23;99534.13;4828023;29;6947;-71
2023/07/01 07:24:08;;;;;;;;;;;;;;;22.20;52.85;99526.97;4860943;29;6773;-73
2023/07/01 07:26:33;;;;;;;;;;;;;;;22.30;52.74;99522.50;4865912;29;6975;-71
2023/07/01 07:28:59;;;;;;;;;;;;;;;22.36;52.87;99530.25;4842823;29;6971;-71
2023/07/01 07:31:25;;;;;;;;;;;;;;;22.45;52.78;99519.69;4846031;29;6951;-72
2023/07/01 07:33:50;;;;;;;;;;;;;;;22.62;52.76;99510.72;4858845;29;6951;-70
2023/07/01 07:36:16;;;;;;;;;;;;;;;22.77;52.80;99512.22;4843598;29;6851;-73
2023/07/01 07:38:41;;;;;;;;;;;;;;;22.98;52.86;99507.53;4860511;29;7102;-71
2023/07/01 07:41:07;;;;;;;;;;;;;;;23.25;52.44;99515.75;4848994;29;6978;-71
2023/07/01 07:43:33;;;;;;;;;;;;;;;23.42;51.56;99513.72;4843221;29;6963;-71
2023/07/01 07:45:58;;;;;;;;;;;;;;;23.45;51.85;99523.28;4845314;29;6921;-70
2023/07/01 07:48:24;;;;;;;;;;;;;;;23.37;52.32;99523.44;4846235;29;6777;-70
2023/07/01 07:50:49;;;;;;;;;;;;;;;23.22;51.89;99519.28;4839093;29;6768;-71
2023/07/01 07:53:15;;;;;;;;;;;;;;;23.12;51.89;99521.22;4823432;29;6999;-70
2023/07/01 07:55:42;;;;;;;;;;;;;;;23.13;52.30;99516.84;4843751;29;6856;-71
2023/07/01 07:58:09;;;;;;;;;;;;;;;23.13;52.23;99509.88;4843277;29;6853;-71
2023/07/01 08:00:35;;;;;;;;;;;;;;;23.10;52.29;99516.91;4856162;29;7228;-72
2023/07/01 08:03:01;;;;;;;;;;;;;;;23.07;52.35;99514.34;4858660;29;6772;-72
2023/07/01 08:05:27;;;;;;;;;;;;;;;23.06;52.57;99512.63;4845722;29;6833;-72
2023/07/01 08:07:53;;;;;;;;;;;;;;;23.05;52.53;99505.69;4846603;29;6969;-71
2023/07/01 08:10:19;;;;;;;;;;;;;;;23.11;52.94;99513.41;4828776;29;6963;-72
2023/07/01 08:12:44;;;;;;;;;;;;;;;23.25;52.81;99513.16;4845081;29;6840;-71
2023/07/01 08:15:10;;;;;;;;;;;;;;;23.38;52.67;99511.19;4843783;29;6761;-70
2023/07/01 08:17:36;;;;;;;;;;;;;;;23.51;52.36;99511.81;4842282;29;6878;-71
2023/07/01 08:20:03;;;;;;;;;;;;;;;23.60;52.05;99501.19;4853976;29;6781;-71
2023/07/01 08:22:28;;;;;;;;;;;;;;;23.68;51.78;99504.50;4846114;29;6792;-71
2023/07/01 08:24:54;;;;;;;;;;;;;;;23.71;51.44;99509.66;4840985;29;6781;-70
2023/07/01 08:27:20;;;;;;;;;;;;;;;23.79;51.09;99506.03;4859634;29;6876;-71
2023/07/01 08:29:45;;;;;;;;;;;;;;;23.84;51.49;99501.56;4853355;29;6765;-70
2023/07/01 08:32:11;;;;;;;;;;;;;;;23.90;51.03;99500.56;4835635;29;6897;-72
2023/07/01 08:34:36;;;;;;;;;;;;;;;23.95;50.95;99496.09;4842510;29;7155;-71
2023/07/01 08:37:02;;;;;;;;;;;;;;;23.97;51.06;99505.66;4845051;29;6781;-71
2023/07/01 08:39:28;;;;;;;;;;;;;;;23.94;50.54;99500.47;4844358;29;6791;-71
2023/07/01 08:42:04;;;;;;;;;;;;;;;23.79;50.29;99504.25;4855486;29;6772;-73
2023/07/01 08:44:31;;;;;;;;;;;;;;;23.55;51.11;99505.63;4832652;29;7001;-73
2023/07/01 08:46:59;;;;;;;;;;;;;;;23.30;51.88;99503.50;4842712;29;6860;-72
2023/07/01 08:49:27;;;;;;;;;;;;;;;23.09;52.53;99494.28;4842965;29;6808;-70
2023/07/01 08:52:21;;;;;;;;;;;;;;;23.02;52.77;99493.53;4839649;29;6963;-71
2023/07/01 08:54:48;;;;;;;;;;;;;;;23.06;53.48;99492.56;4838192;29;6869;-71
2023/07/01 08:57:15;;;;;;;;;;;;;;;23.12;52.63;99489.84;4844276;29;7287;-71
2023/07/01 08:59:43;;;;;;;;;;;;;;;23.12;53.03;99489.84;4839488;29;8186;-73
2023/07/01 09:02:11;;;;;;;;;;;;;;;23.05;53.31;99492.63;4828422;29;6971;-73
2023/07/01 09:04:37;;;;;;;;;;;;;;;22.97;53.77;99496.22;4842282;29;7008;-71
2023/07/01 09:07:05;;;;;;;;;;;;;;;22.93;54.19;99489.31;4839874;29;6996;-73
2023/07/01 09:09:31;;;;;;;;;;;;;;;23.00;54.78;99488.31;4847561;29;7002;-74
2023/07/01 09:11:56;;;;;;;;;;;;;;;23.24;54.98;99486.16;4845031;29;6968;-74
2023/07/01 09:14:22;;;;;;;;;;;;;;;23.50;53.81;99491.81;4837960;29;6947;-73
2023/07/01 09:16:47;;;;;;;;;;;;;;;23.74;53.46;99486.94;4828946;29;6931;-74
2023/07/01 09:19:16;;;;;;;;;;;;;;;23.95;53.49;99485.63;4844000;29;6866;-74
2023/07/01 09:21:43;;;;;;;;;;;;;;;24.07;52.67;99481.94;4846041;29;6812;-73
2023/07/01 09:24:11;;;;;;;;;;;;;;;24.17;52.50;99469.47;4844242;29;7088;-75
2023/07/01 09:26:38;;;;;;;;;;;;;;;24.26;52.46;99475.38;4852535;29;7007;-74
2023/07/01 09:29:14;;;;;;;;;;;;;;;24.34;52.60;99472.56;4859792;29;6945;-75
2023/07/01 09:31:48;;;;;;;;;;;;;;;24.27;51.76;99481.44;4842300;29;6801;-74
2023/07/01 09:34:16;;;;;;;;;;;;;;;24.08;52.40;99486.25;4842446;29;6801;-74
2023/07/01 09:36:42;;;;;;;;;;;;;;;23.94;53.10;99476.91;4856131;29;7444;-74
2023/07/01 09:39:08;;;;;;;;;;;;;;;23.96;53.43;99471.66;4825431;29;7062;-74
2023/07/01 09:41:34;;;;;;;;;;;;;;;24.21;53.29;99477.22;4842532;29;6780;-74
2023/07/01 09:44:00;;;;;;;;;;;;;;;24.41;53.33;99462.78;4834962;29;7253;-73
2023/07/01 09:46:43;;;;;;;;;;;;;;;24.38;52.97;99462.88;4843889;29;6983;-74
2023/07/01 09:49:10;;;;;;;;;;;;;;;24.22;52.85;99467.63;4829035;29;7238;-75
2023/07/01 09:51:47;;;;;;;;;;;;;;;24.04;53.17;99469.75;4860861;29;6788;-75
2023/07/01 09:54:30;;;;;;;;;;;;;;;23.93;53.15;99476.97;4842088;29;6929;-75
2023/07/01 09:56:58;;;;;;;;;;;;;;;23.90;53.73;99470.03;4854131;29;7004;-75
2023/07/01 09:59:26;;;;;;;;;;;;;;;23.91;54.26;99465.69;4840548;29;6983;-75
2023/07/01 10:01:55;;;;;;;;;;;;;;;23.92;53.74;99470.00;4821344;29;8237;-75
2023/07/01 10:04:25;;;;;;;;;;;;;;;23.92;54.05;99459.56;4859080;29;7039;-73
2023/07/01 10:06:53;;;;;;;;;;;;;;;23.98;54.00;99457.66;4849130;29;6837;-75
2023/07/01 10:09:19;;;;;;;;;;;;;;;24.11;53.60;99460.00;4844111;29;6949;-73
2023/07/01 10:11:45;;;;;;;;;;;;;;;24.19;53.82;99458.09;4843892;29;6801;-73
2023/07/01 10:14:12;;;;;;;;;;;;;;;24.21;53.88;99448.44;4840624;29;7096;-75
2023/07/01 10:16:47;;;;;;;;;;;;;;;24.13;53.58;99452.97;4854739;29;6801;-73
2023/07/01 10:19:48;;;;;;;;;;;;;;;24.09;54.48;99441.72;4844039;29;6971;-75
2023/07/01 10:22:29;;;;;;;;;;;;;;;24.29;54.52;99437.78;4854222;29;6833;-73
2023/07/01 10:25:02;;;;;;;;;;;;;;;24.64;54.09;99445.66;4845940;29;6796;-76
2023/07/01 10:27:40;;;;;;;;;;;;;;;25.14;53.68;99439.16;4844552;29;7327;-74
2023/07/01 10:30:15;;;;;;;;;;;;;;;25.60;52.09;99429.13;4844457;29;6982;-75
2023/07/01 10:32:41;;;;;;;;;;;;;;;25.90;51.41;99437.84;4843991;29;11655;-75
2023/07/01 10:35:14;;;;;;;;;;;;;;;26.13;50.29;99436.25;4841876;29;7820;-73
2023/07/01 10:37:39;;;;;;;;;;;;;;;26.28;49.51;99428.84;4859535;29;6817;-75
2023/07/01 10:40:28;;;;;;;;;;;;;;;26.35;48.78;99432.97;4841044;29;6768;-74
2023/07/01 10:43:33;;;;;;;;;;;;;;;26.42;48.39;99431.00;4843363;29;6876;-74
2023/07/01 10:46:24;;;;;;;;;;;;;;;26.43;48.31;99441.44;4842762;29;6877;-75
2023/07/01 10:49:02;;;;;;;;;;;;;;;26.42;48.39;99433.63;4844395;29;6805;-76
2023/07/01 10:51:51;;;;;;;;;;;;;;;26.47;48.29;99431.69;4838508;29;6938;-74
2023/07/01 10:54:31;;;;;;;;;;;;;;;26.66;48.11;99431.94;4823838;29;6997;-75
2023/07/01 10:57:17;;;;;;;;;;;;;;;26.86;47.56;99427.78;4847120;29;6918;-75
2023/07/01 10:59:42;;;;;;;;;;;;;;;26.95;47.44;99429.22;4843301;29;6816;-75
2023/07/01 11:02:30;;;;;;;;;;;;;;;26.99;47.12;99429.06;4841922;29;6789;-75
2023/07/01 11:04:56;;;;;;;;;;;;;;;26.96;46.55;99421.31;4841426;29;6817;-75
2023/07/01 11:07:25;;;;;;;;;;;;;;;26.86;46.45;99425.97;4845470;29;7135;-75
2023/07/01 11:09:56;;;;;;;;;;;;;;;26.73;46.31;99436.06;4843482;29;7148;-74
2023/07/01 11:12:23;;;;;;;;;;;;;;;26.58;46.38;99433.97;4842933;29;6860;-75
2023/07/01 11:14:52;;;;;;;;;;;;;;;26.43;46.86;99430.09;4860991;29;6980;-75
2023/07/01 11:17:20;;;;;;;;;;;;;;;26.34;47.00;99426.84;4845539;29;7128;-73
2023/07/01 11:19:56;;;;;;;;;;;;;;;26.33;46.80;99426.91;4842043;29;7159;-75
2023/07/01 11:22:23;;;;;;;;;;;;;;;26.32;46.96;99422.56;4827508;29;7088;-75
2023/07/01 11:24:49;;;;;;;;;;;;;;;26.36;47.25;99424.16;4845146;29;6844;-75
2023/07/01 11:27:17;;;;;;;;;;;;;;;26.37;47.19;99425.91;4855426;29;7269;-75
2023/07/01 11:29:45;;;;;;;;;;;;;;;26.37;47.36;99422.41;4843788;29;6885;-75
2023/07/01 11:32:15;;;;;;;;;;;;;;;26.46;47.40;99422.09;4842236;29;6829;-75
2023/07/01 11:34:46;;;;;;;;;;;;;;;26.61;47.50;99416.34;4846287;29;7179;-75
2023/07/01 11:37:27;;;;;;;;;;;;;;;26.76;46.99;99422.84;4858387;29;6824;-73
2023/07/01 11:39:53;;;;;;;;;;;;;;;26.87;46.98;99411.91;4843652;29;7206;-75
2023/07/01 11:42:19;;;;;;;;;;;;;;;26.98;46.74;99422.09;4831902;29;7176;-76
2023/07/01 11:44:45;;;;;;;;;;;;;;;27.04;46.05;99418.38;4844508;29;7132;-75
2023/07/01 11:47:13;;;;;;;;;;;;;;;27.04;45.91;99421.03;4861414;29;6789;-74
2023/07/01 11:49:39;;;;;;;;;;;;;;;27.02;46.01;99420.22;4844329;29;6820;-76
2023/07/01 11:52:07;;;;;;;;;;;;;;;27.02;46.29;99417.59;4837883;29;6785;-73
2023/07/01 11:54:37;;;;;;;;;;;;;;;27.00;46.04;99419.44;4853818;29;7752;-72
2023/07/01 11:57:12;;;;;;;;;;;;;;;27.01;46.36;99415.88;4845413;29;8226;-76
2023/07/01 11:59:39;;;;;;;;;;;;;;;26.99;46.14;99418.56;4841568;29;7019;-74
2023/07/01 12:02:05;;;;;;;;;;;;;;;26.97;45.97;99420.38;4845198;29;6809;-74
2023/07/01 12:04:33;;;;;;;;;;;;;;;26.96;46.29;99412.53;4846978;29;7878;-74
2023/07/01 12:07:17;;;;;;;;;;;;;;;27.03;46.65;99407.00;4861203;29;6797;-75
2023/07/01 12:09:45;;;;;;;;;;;;;;;27.26;46.44;99407.94;4859716;29;6919;-71
2023/07/01 12:12:15;;;;;;;;;;;;;;;27.44;46.40;99413.44;4848238;29;6804;-74
2023/07/01 12:14:40;;;;;;;;;;;;;;;27.58;46.05;99416.41;4845841;29;6832;-73
2023/07/01 12:17:06;;;;;;;;;;;;;;;27.65;45.69;99410.94;4847009;29;6804;-74
2023/07/01 12:19:32;;;;;;;;;;;;;;;27.57;45.30;99429.63;4845402;29;6781;-73
2023/07/01 12:21:59;;;;;;;;;;;;;;;27.24;46.30;99433.47;4846153;29;7143;-73
2023/07/01 12:24:30;;;;;;;;;;;;;;;26.87;46.80;99437.38;4847523;29;6792;-72
2023/07/01 12:27:03;;;;;;;;;;;;;;;26.41;47.67;99439.78;4858233;29;6789;-74
2023/07/01 12:29:29;;;;;;;;;;;;;;;26.02;49.09;99431.34;4857953;29;7313;-74
2023/07/01 12:31:55;;;;;;;;;;;;;;;25.74;50.37;99415.59;4847917;29;6872;-73
2023/07/01 12:34:21;;;;;;;;;;;;;;;25.55;51.12;99421.41;4842871;29;6861;-74
2023/07/01 12:36:48;;;;;;;;;;;;;;;25.59;51.67;99423.03;4842512;29;6812;-74
2023/07/01 12:39:18;;;;;;;;;;;;;;;25.81;52.25;99419.75;4842939;29;6785;-74
2023/07/01 12:41:58;;;;;;;;;;;;;;;26.13;52.28;99407.38;4826807;29;6845;-74
2023/07/01 12:44:23;;;;;;;;;;;;;;;26.50;52.06;99405.31;4845715;29;6988;-75
2023/07/01 12:46:49;;;;;;;;;;;;;;;26.90;51.69;99411.00;4857980;29;6924;-73
2023/07/01 12:49:15;;;;;;;;;;;;;;;27.27;50.59;99416.69;4845920;29;6773;-72
2023/07/01 12:51:43;;;;;;;;;;;;;;;27.62;50.00;99409.25;4845035;29;7897;-72
2023/07/01 12:54:09;;;;;;;;;;;;;;;27.94;48.97;99407.13;4834763;29;6993;-74
2023/07/01 12:56:35;;;;;;;;;;;;;;;28.25;48.61;99407.69;4845097;29;6828;-75
2023/07/01 12:59:01;;;;;;;;;;;;;;;28.65;48.71;99403.38;4841681;29;7171;-74
2023/07/01 13:01:26;;;;;;;;;;;;;;;29.31;47.21;99396.13;4839398;29;7052;-75